sensor_id;sensor_type;location;lat;lon;timestamp;P1;P2;P0
72031;PMS5003;49185;42.320;23.198;2023-01-10T00:02:20;16.50;15.00;6.50
72031;PMS5003;49185;42.320;23.198;2023-01-10T00:04:46;15.00;15.00;6.00
72031;PMS5003;49185;42.320;23.198;2023-01-10T00:07:11;16.00;15.00;5.33
72031;PMS5003;49185;42.320;23.198;2023-01-10T00:09:37;16.33;14.00;6.00
72031;PMS5003;49185;42.320;23.198;2023-01-10T00:12:02;17.00;16.00;7.67
72031;PMS5003;49185;42.320;23.198;2023-01-10T00:14:27;17.33;16.00;5.00
72031;PMS5003;49185;42.320;23.198;2023-01-10T00:16:53;18.00;16.33;5.00
72031;PMS5003;49185;42.320;23.198;2023-01-10T00:19:19;16.33;15.00;6.00
72031;PMS5003;49185;42.320;23.198;2023-01-10T00:21:44;17.33;14.33;7.00
72031;PMS5003;49185;42.320;23.198;2023-01-10T00:24:10;17.00;15.00;7.00
72031;PMS5003;49185;42.320;23.198;2023-01-10T00:26:35;16.00;14.50;5.00
72031;PMS5003;49185;42.320;23.198;2023-01-10T00:29:01;18.00;15.00;7.00
72031;PMS5003;49185;42.320;23.198;2023-01-10T00:31:26;17.33;14.33;6.00
72031;PMS5003;49185;42.320;23.198;2023-01-10T00:33:52;16.00;14.00;4.33
72031;PMS5003;49185;42.320;23.198;2023-01-10T00:36:17;17.00;14.00;5.00
72031;PMS5003;49185;42.320;23.198;2023-01-10T00:38:43;13.33;12.00;4.33
72031;PMS5003;49185;42.320;23.198;2023-01-10T00:41:08;13.33;11.00;4.00
72031;PMS5003;49185;42.320;23.198;2023-01-10T00:43:34;15.67;11.00;4.00
72031;PMS5003;49185;42.320;23.198;2023-01-10T00:45:59;14.33;10.00;4.33
72031;PMS5003;49185;42.320;23.198;2023-01-10T00:48:24;14.00;10.67;4.00
72031;PMS5003;49185;42.320;23.198;2023-01-10T00:50:50;14.00;9.67;4.67
72031;PMS5003;49185;42.320;23.198;2023-01-10T00:53:16;11.75;11.00;4.00
72031;PMS5003;49185;42.320;23.198;2023-01-10T00:55:41;13.00;12.00;4.00
72031;PMS5003;49185;42.320;23.198;2023-01-10T00:58:06;13.67;13.33;5.00
72031;PMS5003;49185;42.320;23.198;2023-01-10T01:00:32;16.00;15.00;5.00
72031;PMS5003;49185;42.320;23.198;2023-01-10T01:02:58;14.50;13.00;4.75
72031;PMS5003;49185;42.320;23.198;2023-01-10T01:05:23;12.00;12.00;5.00
72031;PMS5003;49185;42.320;23.198;2023-01-10T01:07:49;13.00;12.00;4.33
72031;PMS5003;49185;42.320;23.198;2023-01-10T01:10:15;14.00;13.00;5.00
72031;PMS5003;49185;42.320;23.198;2023-01-10T01:12:41;16.00;14.33;6.00
72031;PMS5003;49185;42.320;23.198;2023-01-10T01:15:06;18.00;16.00;8.00
72031;PMS5003;49185;42.320;23.198;2023-01-10T01:17:32;19.00;17.00;8.00
72031;PMS5003;49185;42.320;23.198;2023-01-10T01:19:57;20.67;18.33;9.00
72031;PMS5003;49185;42.320;23.198;2023-01-10T01:22:23;18.00;16.00;6.67
72031;PMS5003;49185;42.320;23.198;2023-01-10T01:24:48;18.67;16.00;6.67
72031;PMS5003;49185;42.320;23.198;2023-01-10T01:27:13;17.00;14.67;6.00
72031;PMS5003;49185;42.320;23.198;2023-01-10T01:29:39;16.67;16.00;5.00
72031;PMS5003;49185;42.320;23.198;2023-01-10T01:32:04;22.00;19.33;10.33
72031;PMS5003;49185;42.320;23.198;2023-01-10T01:34:30;26.67;22.67;12.00
72031;PMS5003;49185;42.320;23.198;2023-01-10T01:36:55;32.33;27.00;15.67
72031;PMS5003;49185;42.320;23.198;2023-01-10T01:39:21;36.67;29.00;17.00
72031;PMS5003;49185;42.320;23.198;2023-01-10T01:41:46;27.75;24.75;14.00
72031;PMS5003;49185;42.320;23.198;2023-01-10T01:44:16;26.00;23.00;13.33
72031;PMS5003;49185;42.320;23.198;2023-01-10T01:46:44;24.00;21.00;13.00
72031;PMS5003;49185;42.320;23.198;2023-01-10T01:49:15;24.50;22.50;13.00
72031;PMS5003;49185;42.320;23.198;2023-01-10T01:51:46;26.50;22.75;13.50
72031;PMS5003;49185;42.320;23.198;2023-01-10T01:54:15;30.00;24.00;13.50
72031;PMS5003;49185;42.320;23.198;2023-01-10T01:57:05;25.50;22.00;13.00
72031;PMS5003;49185;42.320;23.198;2023-01-10T01:59:40;23.00;21.00;12.00
72031;PMS5003;49185;42.320;23.198;2023-01-10T02:02:14;36.50;30.00;17.50
72031;PMS5003;49185;42.320;23.198;2023-01-10T02:04:54;32.00;26.00;15.25
72031;PMS5003;49185;42.320;23.198;2023-01-10T02:07:24;23.00;21.00;13.00
72031;PMS5003;49185;42.320;23.198;2023-01-10T02:12:24;15.50;14.00;6.00
72031;PMS5003;49185;42.320;23.198;2023-01-10T02:14:53;16.50;14.00;6.00
72031;PMS5003;49185;42.320;23.198;2023-01-10T02:17:18;15.67;14.00;5.00
72031;PMS5003;49185;42.320;23.198;2023-01-10T02:19:51;16.00;15.33;5.00
72031;PMS5003;49185;42.320;23.198;2023-01-10T02:39:38;17.25;15.00;6.00
72031;PMS5003;49185;42.320;23.198;2023-01-10T02:42:08;18.50;15.00;5.25
72031;PMS5003;49185;42.320;23.198;2023-01-10T02:44:42;18.50;15.00;6.25
72031;PMS5003;49185;42.320;23.198;2023-01-10T02:47:13;18.50;15.50;7.25
72031;PMS5003;49185;42.320;23.198;2023-01-10T02:49:45;18.00;17.00;7.00
72031;PMS5003;49185;42.320;23.198;2023-01-10T02:52:13;16.00;16.00;6.00
72031;PMS5003;49185;42.320;23.198;2023-01-10T02:54:45;17.50;16.00;6.75
72031;PMS5003;49185;42.320;23.198;2023-01-10T02:57:24;16.25;16.00;6.00
72031;PMS5003;49185;42.320;23.198;2023-01-10T03:10:38;17.00;15.00;6.00
72031;PMS5003;49185;42.320;23.198;2023-01-10T03:13:35;16.00;14.00;5.00
72031;PMS5003;49185;42.320;23.198;2023-01-10T03:16:08;15.00;11.25;4.00
72031;PMS5003;49185;42.320;23.198;2023-01-10T03:19:03;14.50;10.00;5.00
72031;PMS5003;49185;42.320;23.198;2023-01-10T03:21:31;15.25;10.75;5.00
72031;PMS5003;49185;42.320;23.198;2023-01-10T03:24:17;15.25;11.25;5.50
72031;PMS5003;49185;42.320;23.198;2023-01-10T03:29:57;16.50;14.00;5.00
72031;PMS5003;49185;42.320;23.198;2023-01-10T03:32:34;16.00;15.25;5.00
72031;PMS5003;49185;42.320;23.198;2023-01-10T03:35:00;14.50;14.50;5.00
72031;PMS5003;49185;42.320;23.198;2023-01-10T03:37:33;14.00;13.00;5.00
72031;PMS5003;49185;42.320;23.198;2023-01-10T03:40:22;16.00;13.00;4.00
72031;PMS5003;49185;42.320;23.198;2023-01-10T03:43:02;15.00;13.25;5.25
72031;PMS5003;49185;42.320;23.198;2023-01-10T03:46:00;16.00;14.50;5.00
72031;PMS5003;49185;42.320;23.198;2023-01-10T03:48:31;14.50;13.00;4.50
72031;PMS5003;49185;42.320;23.198;2023-01-10T03:51:00;14.25;12.00;4.50
72031;PMS5003;49185;42.320;23.198;2023-01-10T03:53:29;14.75;13.25;5.00
72031;PMS5003;49185;42.320;23.198;2023-01-10T03:55:56;15.25;14.00;5.00
72031;PMS5003;49185;42.320;23.198;2023-01-10T03:58:22;15.00;14.33;5.00
72031;PMS5003;49185;42.320;23.198;2023-01-10T04:00:48;17.00;14.33;4.67
72031;PMS5003;49185;42.320;23.198;2023-01-10T04:03:13;17.00;15.00;4.00
72031;PMS5003;49185;42.320;23.198;2023-01-10T04:05:39;13.00;12.00;4.33
72031;PMS5003;49185;42.320;23.198;2023-01-10T04:08:04;12.67;10.00;4.00
72031;PMS5003;49185;42.320;23.198;2023-01-10T04:10:30;22.67;18.67;9.00
72031;PMS5003;49185;42.320;23.198;2023-01-10T04:12:58;22.33;19.00;8.33
72031;PMS5003;49185;42.320;23.198;2023-01-10T04:15:24;17.50;15.75;4.00
72031;PMS5003;49185;42.320;23.198;2023-01-10T04:17:49;16.00;14.00;6.00
72031;PMS5003;49185;42.320;23.198;2023-01-10T04:20:15;17.33;15.33;6.00
72031;PMS5003;49185;42.320;23.198;2023-01-10T04:22:40;17.00;15.00;5.33
72031;PMS5003;49185;42.320;23.198;2023-01-10T04:25:06;17.33;17.00;6.67
72031;PMS5003;49185;42.320;23.198;2023-01-10T04:27:31;16.00;14.50;5.75
72031;PMS5003;49185;42.320;23.198;2023-01-10T04:29:57;17.00;15.00;6.00
72031;PMS5003;49185;42.320;23.198;2023-01-10T04:32:22;18.00;13.00;5.00
72031;PMS5003;49185;42.320;23.198;2023-01-10T04:34:48;17.75;13.50;7.75
72031;PMS5003;49185;42.320;23.198;2023-01-10T04:37:14;17.00;14.00;6.00
72031;PMS5003;49185;42.320;23.198;2023-01-10T04:39:39;20.33;16.67;7.33
72031;PMS5003;49185;42.320;23.198;2023-01-10T04:42:04;17.00;15.00;5.00
72031;PMS5003;49185;42.320;23.198;2023-01-10T04:44:30;19.67;17.33;8.33
72031;PMS5003;49185;42.320;23.198;2023-01-10T04:46:55;22.00;18.33;9.33
72031;PMS5003;49185;42.320;23.198;2023-01-10T04:49:21;24.67;22.33;12.00
72031;PMS5003;49185;42.320;23.198;2023-01-10T04:51:46;25.00;23.00;11.00
72031;PMS5003;49185;42.320;23.198;2023-01-10T04:54:11;23.33;21.00;9.67
72031;PMS5003;49185;42.320;23.198;2023-01-10T04:56:37;20.00;18.67;8.67
72031;PMS5003;49185;42.320;23.198;2023-01-10T04:59:02;21.67;20.33;10.00
72031;PMS5003;49185;42.320;23.198;2023-01-10T05:01:28;22.67;21.67;11.00
72031;PMS5003;49185;42.320;23.198;2023-01-10T05:03:54;22.33;20.00;9.67
72031;PMS5003;49185;42.320;23.198;2023-01-10T05:06:21;21.00;19.00;6.00
72031;PMS5003;49185;42.320;23.198;2023-01-10T05:08:48;18.00;17.00;5.50
72031;PMS5003;49185;42.320;23.198;2023-01-10T05:11:13;21.33;17.00;8.00
72031;PMS5003;49185;42.320;23.198;2023-01-10T05:13:39;18.67;17.33;7.00
72031;PMS5003;49185;42.320;23.198;2023-01-10T05:16:04;21.00;17.67;7.33
72031;PMS5003;49185;42.320;23.198;2023-01-10T05:18:30;21.75;17.50;8.50
72031;PMS5003;49185;42.320;23.198;2023-01-10T05:21:00;19.50;17.00;7.00
72031;PMS5003;49185;42.320;23.198;2023-01-10T05:23:26;19.00;17.25;6.00
72031;PMS5003;49185;42.320;23.198;2023-01-10T05:25:53;17.50;16.00;6.00
72031;PMS5003;49185;42.320;23.198;2023-01-10T05:28:19;17.00;15.00;6.75
72031;PMS5003;49185;42.320;23.198;2023-01-10T05:30:44;18.00;17.00;8.00
72031;PMS5003;49185;42.320;23.198;2023-01-10T05:33:10;17.00;17.00;7.00
72031;PMS5003;49185;42.320;23.198;2023-01-10T05:35:35;17.00;17.00;6.00
72031;PMS5003;49185;42.320;23.198;2023-01-10T05:38:01;17.33;17.00;7.33
72031;PMS5003;49185;42.320;23.198;2023-01-10T05:40:26;19.00;17.33;6.67
72031;PMS5003;49185;42.320;23.198;2023-01-10T05:42:52;18.00;17.00;8.33
72031;PMS5003;49185;42.320;23.198;2023-01-10T05:45:17;16.67;15.00;6.00
72031;PMS5003;49185;42.320;23.198;2023-01-10T05:47:43;17.00;15.00;5.00
72031;PMS5003;49185;42.320;23.198;2023-01-10T05:50:08;18.00;15.00;5.00
72031;PMS5003;49185;42.320;23.198;2023-01-10T05:52:34;16.25;13.75;6.00
72031;PMS5003;49185;42.320;23.198;2023-01-10T05:54:59;17.00;14.00;6.00
72031;PMS5003;49185;42.320;23.198;2023-01-10T05:57:25;19.33;18.00;6.33
72031;PMS5003;49185;42.320;23.198;2023-01-10T05:59:50;19.00;17.33;5.00
72031;PMS5003;49185;42.320;23.198;2023-01-10T06:02:16;17.00;16.00;7.00
72031;PMS5003;49185;42.320;23.198;2023-01-10T06:04:42;17.33;16.00;6.00
72031;PMS5003;49185;42.320;23.198;2023-01-10T06:07:07;19.33;18.33;7.67
72031;PMS5003;49185;42.320;23.198;2023-01-10T06:09:32;18.00;17.00;6.00
72031;PMS5003;49185;42.320;23.198;2023-01-10T06:11:58;16.67;16.00;7.00
72031;PMS5003;49185;42.320;23.198;2023-01-10T06:14:24;18.75;17.50;7.00
72031;PMS5003;49185;42.320;23.198;2023-01-10T06:16:49;16.00;16.00;6.00
72031;PMS5003;49185;42.320;23.198;2023-01-10T06:19:15;18.50;17.50;8.50
72031;PMS5003;49185;42.320;23.198;2023-01-10T06:21:41;21.33;18.00;8.33
72031;PMS5003;49185;42.320;23.198;2023-01-10T06:24:06;22.33;19.00;11.00
72031;PMS5003;49185;42.320;23.198;2023-01-10T06:26:32;22.50;18.75;10.25
72031;PMS5003;49185;42.320;23.198;2023-01-10T06:28:57;21.00;19.67;8.00
72031;PMS5003;49185;42.320;23.198;2023-01-10T06:31:23;22.00;21.67;10.33
72031;PMS5003;49185;42.320;23.198;2023-01-10T06:33:49;21.00;18.00;8.00
72031;PMS5003;49185;42.320;23.198;2023-01-10T06:36:14;20.50;17.00;8.50
72031;PMS5003;49185;42.320;23.198;2023-01-10T06:38:40;23.67;19.67;11.00
72031;PMS5003;49185;42.320;23.198;2023-01-10T06:41:05;24.00;22.00;10.00
72031;PMS5003;49185;42.320;23.198;2023-01-10T06:43:31;23.00;20.00;9.00
72031;PMS5003;49185;42.320;23.198;2023-01-10T06:45:56;20.67;18.33;8.00
72031;PMS5003;49185;42.320;23.198;2023-01-10T06:48:22;19.00;18.00;7.00
72031;PMS5003;49185;42.320;23.198;2023-01-10T06:50:48;19.00;17.67;9.00
72031;PMS5003;49185;42.320;23.198;2023-01-10T06:53:14;21.00;18.00;8.50
72031;PMS5003;49185;42.320;23.198;2023-01-10T06:55:39;19.00;18.00;8.50
72031;PMS5003;49185;42.320;23.198;2023-01-10T06:58:05;17.00;17.00;7.33
72031;PMS5003;49185;42.320;23.198;2023-01-10T07:00:30;21.33;19.00;10.00
72031;PMS5003;49185;42.320;23.198;2023-01-10T07:02:59;21.67;19.67;9.00
72031;PMS5003;49185;42.320;23.198;2023-01-10T07:05:26;20.00;19.00;8.50
72031;PMS5003;49185;42.320;23.198;2023-01-10T07:07:52;19.00;18.00;6.75
72031;PMS5003;49185;42.320;23.198;2023-01-10T07:10:18;20.00;17.33;8.00
72031;PMS5003;49185;42.320;23.198;2023-01-10T07:12:43;19.00;16.33;7.00
72031;PMS5003;49185;42.320;23.198;2023-01-10T07:15:09;17.00;16.00;7.33
72031;PMS5003;49185;42.320;23.198;2023-01-10T07:17:34;18.50;16.00;6.00
72031;PMS5003;49185;42.320;23.198;2023-01-10T07:20:00;19.00;17.00;7.00
72031;PMS5003;49185;42.320;23.198;2023-01-10T07:22:25;20.00;18.00;7.00
72031;PMS5003;49185;42.320;23.198;2023-01-10T07:24:51;17.33;17.00;8.00
72031;PMS5003;49185;42.320;23.198;2023-01-10T07:27:16;17.33;16.00;7.00
72031;PMS5003;49185;42.320;23.198;2023-01-10T07:29:41;18.00;16.00;7.00
72031;PMS5003;49185;42.320;23.198;2023-01-10T07:32:07;18.00;18.00;7.00
72031;PMS5003;49185;42.320;23.198;2023-01-10T07:34:32;19.67;18.67;7.67
72031;PMS5003;49185;42.320;23.198;2023-01-10T07:36:58;32.33;26.00;14.67
72031;PMS5003;49185;42.320;23.198;2023-01-10T07:39:23;26.67;24.00;15.00
72031;PMS5003;49185;42.320;23.198;2023-01-10T07:41:49;39.33;31.67;18.33
72031;PMS5003;49185;42.320;23.198;2023-01-10T07:44:14;34.33;27.33;16.67
72031;PMS5003;49185;42.320;23.198;2023-01-10T07:46:40;20.00;17.75;9.00
72031;PMS5003;49185;42.320;23.198;2023-01-10T07:49:06;18.00;16.00;5.00
72031;PMS5003;49185;42.320;23.198;2023-01-10T07:51:31;17.00;15.00;6.00
72031;PMS5003;49185;42.320;23.198;2023-01-10T07:53:56;17.67;17.00;6.00
72031;PMS5003;49185;42.320;23.198;2023-01-10T07:56:22;19.33;16.00;7.00
72031;PMS5003;49185;42.320;23.198;2023-01-10T07:58:48;19.50;16.50;7.00
72031;PMS5003;49185;42.320;23.198;2023-01-10T08:01:14;20.67;19.00;9.67
72031;PMS5003;49185;42.320;23.198;2023-01-10T08:03:39;20.00;18.50;9.00
72031;PMS5003;49185;42.320;23.198;2023-01-10T08:06:06;20.50;18.00;7.25
72031;PMS5003;49185;42.320;23.198;2023-01-10T08:08:33;26.50;23.50;13.25
72031;PMS5003;49185;42.320;23.198;2023-01-10T08:10:58;31.00;27.00;17.00
72031;PMS5003;49185;42.320;23.198;2023-01-10T08:13:24;42.50;32.50;19.75
72031;PMS5003;49185;42.320;23.198;2023-01-10T08:15:50;46.00;35.00;21.00
72031;PMS5003;49185;42.320;23.198;2023-01-10T08:18:15;38.67;30.33;19.00
72031;PMS5003;49185;42.320;23.198;2023-01-10T08:20:41;24.67;23.00;14.00
72031;PMS5003;49185;42.320;23.198;2023-01-10T08:23:06;20.00;19.00;10.00
72031;PMS5003;49185;42.320;23.198;2023-01-10T08:25:32;18.00;16.00;8.00
72031;PMS5003;49185;42.320;23.198;2023-01-10T08:27:57;16.00;16.00;8.00
72031;PMS5003;49185;42.320;23.198;2023-01-10T08:30:22;22.00;18.67;10.67
72031;PMS5003;49185;42.320;23.198;2023-01-10T08:32:48;30.67;26.67;16.00
72031;PMS5003;49185;42.320;23.198;2023-01-10T08:35:14;31.00;27.00;18.00
72031;PMS5003;49185;42.320;23.198;2023-01-10T08:37:39;34.00;28.33;17.00
72031;PMS5003;49185;42.320;23.198;2023-01-10T08:40:05;38.33;29.33;18.00
72031;PMS5003;49185;42.320;23.198;2023-01-10T08:42:31;35.75;29.50;18.00
72031;PMS5003;49185;42.320;23.198;2023-01-10T08:44:56;39.00;32.00;18.67
72031;PMS5003;49185;42.320;23.198;2023-01-10T08:47:22;39.00;31.33;19.00
72031;PMS5003;49185;42.320;23.198;2023-01-10T08:49:47;40.67;32.33;19.00
72031;PMS5003;49185;42.320;23.198;2023-01-10T08:52:12;33.67;29.00;18.00
72031;PMS5003;49185;42.320;23.198;2023-01-10T08:54:38;27.00;25.00;16.00
72031;PMS5003;49185;42.320;23.198;2023-01-10T08:57:03;27.33;25.00;15.00
72031;PMS5003;49185;42.320;23.198;2023-01-10T08:59:28;31.33;27.00;16.00
72031;PMS5003;49185;42.320;23.198;2023-01-10T09:01:54;37.00;29.33;17.00
72031;PMS5003;49185;42.320;23.198;2023-01-10T09:04:19;36.00;29.33;18.00
72031;PMS5003;49185;42.320;23.198;2023-01-10T09:06:45;32.00;27.33;17.33
72031;PMS5003;49185;42.320;23.198;2023-01-10T09:09:10;38.00;29.00;18.67
72031;PMS5003;49185;42.320;23.198;2023-01-10T09:11:36;38.33;31.00;18.33
72031;PMS5003;49185;42.320;23.198;2023-01-10T09:14:01;40.33;31.00;18.00
72031;PMS5003;49185;42.320;23.198;2023-01-10T09:16:27;33.33;27.00;16.67
72031;PMS5003;49185;42.320;23.198;2023-01-10T09:18:52;30.33;25.67;16.00
72031;PMS5003;49185;42.320;23.198;2023-01-10T09:21:17;30.67;26.67;16.00
72031;PMS5003;49185;42.320;23.198;2023-01-10T09:23:43;30.33;27.33;16.00
72031;PMS5003;49185;42.320;23.198;2023-01-10T09:26:08;36.67;30.67;18.00
72031;PMS5003;49185;42.320;23.198;2023-01-10T09:28:34;39.50;32.50;20.75
72031;PMS5003;49185;42.320;23.198;2023-01-10T09:31:00;40.33;33.67;21.00
72031;PMS5003;49185;42.320;23.198;2023-01-10T09:33:25;51.00;39.00;23.00
72031;PMS5003;49185;42.320;23.198;2023-01-10T09:35:51;52.67;41.00;24.00
72031;PMS5003;49185;42.320;23.198;2023-01-10T09:38:17;42.00;34.33;20.00
72031;PMS5003;49185;42.320;23.198;2023-01-10T09:46:22;25.00;23.75;13.25
72031;PMS5003;49185;42.320;23.198;2023-01-10T09:48:52;32.00;27.25;15.25
72031;PMS5003;49185;42.320;23.198;2023-01-10T09:51:42;32.75;28.00;17.25
72031;PMS5003;49185;42.320;23.198;2023-01-10T09:54:13;26.50;25.00;15.00
72031;PMS5003;49185;42.320;23.198;2023-01-10T09:56:43;19.00;19.00;12.00
72031;PMS5003;49185;42.320;23.198;2023-01-10T09:59:14;20.75;19.75;11.50
72031;PMS5003;49185;42.320;23.198;2023-01-10T10:01:43;23.50;22.00;12.00
72031;PMS5003;49185;42.320;23.198;2023-01-10T10:06:57;39.75;32.50;20.00
72031;PMS5003;49185;42.320;23.198;2023-01-10T10:09:30;52.33;41.33;25.67
72031;PMS5003;49185;42.320;23.198;2023-01-10T10:20:42;58.00;47.00;29.00
72031;PMS5003;49185;42.320;23.198;2023-01-10T10:24:03;50.00;40.25;26.00
72031;PMS5003;49185;42.320;23.198;2023-01-10T10:26:34;47.50;38.50;24.50
72031;PMS5003;49185;42.320;23.198;2023-01-10T10:34:13;37.00;32.00;19.00
72031;PMS5003;49185;42.320;23.198;2023-01-10T10:36:52;37.50;32.00;19.00
72031;PMS5003;49185;42.320;23.198;2023-01-10T10:39:32;38.50;31.25;20.00
72031;PMS5003;49185;42.320;23.198;2023-01-10T10:42:01;38.00;30.50;20.00
72031;PMS5003;49185;42.320;23.198;2023-01-10T10:47:16;35.00;28.50;18.00
72031;PMS5003;49185;42.320;23.198;2023-01-10T10:52:51;38.25;32.00;20.00
72031;PMS5003;49185;42.320;23.198;2023-01-10T10:55:18;39.00;31.33;20.00
72031;PMS5003;49185;42.320;23.198;2023-01-10T10:58:08;39.00;31.75;19.00
72031;PMS5003;49185;42.320;23.198;2023-01-10T11:00:37;40.50;32.75;19.00
72031;PMS5003;49185;42.320;23.198;2023-01-10T11:06:07;29.00;26.00;16.00
72031;PMS5003;49185;42.320;23.198;2023-01-10T11:08:37;26.25;24.50;14.50
72031;PMS5003;49185;42.320;23.198;2023-01-10T11:11:09;28.75;24.75;14.50
72031;PMS5003;49185;42.320;23.198;2023-01-10T11:16:21;38.50;31.75;19.75
72031;PMS5003;49185;42.320;23.198;2023-01-10T11:19:03;33.50;28.25;18.00
72031;PMS5003;49185;42.320;23.198;2023-01-10T11:21:51;31.25;26.00;17.00
72031;PMS5003;49185;42.320;23.198;2023-01-10T11:24:24;33.50;26.75;17.75
72031;PMS5003;49185;42.320;23.198;2023-01-10T11:26:52;38.50;31.25;19.00
72031;PMS5003;49185;42.320;23.198;2023-01-10T11:32:11;58.75;47.50;28.25
72031;PMS5003;49185;42.320;23.198;2023-01-10T11:34:39;64.25;55.50;32.00
72031;PMS5003;49185;42.320;23.198;2023-01-10T11:37:18;64.25;55.75;33.00
72031;PMS5003;49185;42.320;23.198;2023-01-10T11:39:46;62.25;52.00;32.00
72031;PMS5003;49185;42.320;23.198;2023-01-10T11:44:49;52.50;41.50;26.00
72031;PMS5003;49185;42.320;23.198;2023-01-10T11:47:14;49.00;39.00;25.00
72031;PMS5003;49185;42.320;23.198;2023-01-10T11:49:41;44.50;36.50;23.00
72031;PMS5003;49185;42.320;23.198;2023-01-10T11:54:42;38.50;33.00;19.00
72031;PMS5003;49185;42.320;23.198;2023-01-10T11:57:15;39.75;31.75;20.00
72031;PMS5003;49185;42.320;23.198;2023-01-10T11:59:53;41.50;32.50;22.00
72031;PMS5003;49185;42.320;23.198;2023-01-10T12:05:00;37.50;31.00;20.25
72031;PMS5003;49185;42.320;23.198;2023-01-10T12:07:30;38.50;32.50;20.00
72031;PMS5003;49185;42.320;23.198;2023-01-10T12:10:26;38.00;31.25;19.00
72031;PMS5003;49185;42.320;23.198;2023-01-10T12:12:53;38.00;31.00;19.50
72031;PMS5003;49185;42.320;23.198;2023-01-10T12:15:22;39.75;31.50;19.50
72031;PMS5003;49185;42.320;23.198;2023-01-10T12:17:56;41.00;31.75;19.50
72031;PMS5003;49185;42.320;23.198;2023-01-10T12:20:24;37.50;29.75;19.00
72031;PMS5003;49185;42.320;23.198;2023-01-10T12:23:02;27.25;25.50;17.00
72031;PMS5003;49185;42.320;23.198;2023-01-10T12:25:36;20.75;20.50;13.00
72031;PMS5003;49185;42.320;23.198;2023-01-10T12:28:27;28.00;24.50;13.75
72031;PMS5003;49185;42.320;23.198;2023-01-10T12:30:52;30.50;25.50;15.00
72031;PMS5003;49185;42.320;23.198;2023-01-10T12:33:22;40.50;32.50;18.00
72031;PMS5003;49185;42.320;23.198;2023-01-10T12:39:13;47.75;37.25;20.25
72031;PMS5003;49185;42.320;23.198;2023-01-10T12:42:01;43.50;33.75;20.00
72031;PMS5003;49185;42.320;23.198;2023-01-10T12:44:38;37.00;31.00;18.50
72031;PMS5003;49185;42.320;23.198;2023-01-10T12:53:27;40.50;33.00;20.00
72031;PMS5003;49185;42.320;23.198;2023-01-10T12:56:01;42.75;34.25;21.50
72031;PMS5003;49185;42.320;23.198;2023-01-10T12:58:34;46.75;37.00;23.00
72031;PMS5003;49185;42.320;23.198;2023-01-10T13:01:05;51.25;40.25;25.75
72031;PMS5003;49185;42.320;23.198;2023-01-10T13:03:34;62.00;53.50;32.75
72031;PMS5003;49185;42.320;23.198;2023-01-10T13:06:00;59.00;47.25;28.75
72031;PMS5003;49185;42.320;23.198;2023-01-10T13:08:27;56.00;43.50;27.00
72031;PMS5003;49185;42.320;23.198;2023-01-10T13:10:56;57.25;44.75;28.00
72031;PMS5003;49185;42.320;23.198;2023-01-10T13:16:42;58.00;47.25;30.00
72031;PMS5003;49185;42.320;23.198;2023-01-10T13:21:48;53.75;42.00;28.00
72031;PMS5003;49185;42.320;23.198;2023-01-10T13:29:22;45.00;37.00;24.00
72031;PMS5003;49185;42.320;23.198;2023-01-10T13:31:50;35.75;31.25;19.75
72031;PMS5003;49185;42.320;23.198;2023-01-10T13:34:16;31.00;28.00;18.00
72031;PMS5003;49185;42.320;23.198;2023-01-10T13:39:44;40.25;33.50;20.00
72031;PMS5003;49185;42.320;23.198;2023-01-10T13:42:35;40.00;32.00;19.00
72031;PMS5003;49185;42.320;23.198;2023-01-10T13:57:54;41.75;33.00;19.50
72031;PMS5003;49185;42.320;23.198;2023-01-10T14:00:45;41.50;34.00;20.50
72031;PMS5003;49185;42.320;23.198;2023-01-10T14:06:03;39.00;31.75;20.00
72031;PMS5003;49185;42.320;23.198;2023-01-10T14:08:35;38.25;31.00;19.00
72031;PMS5003;49185;42.320;23.198;2023-01-10T14:11:11;29.50;26.50;17.25
72031;PMS5003;49185;42.320;23.198;2023-01-10T14:13:37;22.00;21.00;15.00
72031;PMS5003;49185;42.320;23.198;2023-01-10T14:18:59;19.50;16.25;10.00
72031;PMS5003;49185;42.320;23.198;2023-01-10T14:21:26;19.00;16.00;9.00
72031;PMS5003;49185;42.320;23.198;2023-01-10T14:23:54;22.50;21.25;13.00
72031;PMS5003;49185;42.320;23.198;2023-01-10T14:26:42;27.00;24.75;15.00
72031;PMS5003;49185;42.320;23.198;2023-01-10T14:29:09;26.50;24.00;14.00
72031;PMS5003;49185;42.320;23.198;2023-01-10T14:31:59;20.00;20.00;11.50
72031;PMS5003;49185;42.320;23.198;2023-01-10T14:34:29;7.75;7.00;2.50
72031;PMS5003;49185;42.320;23.198;2023-01-10T14:37:01;9.50;8.50;4.00
72031;PMS5003;49185;42.320;23.198;2023-01-10T14:39:31;21.25;19.75;11.50
72031;PMS5003;49185;42.320;23.198;2023-01-10T14:41:58;24.50;23.00;16.00
72031;PMS5003;49185;42.320;23.198;2023-01-10T14:44:30;20.75;20.00;12.50
72031;PMS5003;49185;42.320;23.198;2023-01-10T14:47:01;19.00;18.00;11.00
72031;PMS5003;49185;42.320;23.198;2023-01-10T14:49:27;18.00;17.00;8.00
72031;PMS5003;49185;42.320;23.198;2023-01-10T14:51:54;19.25;19.25;10.25
72031;PMS5003;49185;42.320;23.198;2023-01-10T14:54:35;20.00;19.00;10.00
72031;PMS5003;49185;42.320;23.198;2023-01-10T14:57:00;19.67;19.00;8.00
72031;PMS5003;49185;42.320;23.198;2023-01-10T14:59:27;20.67;19.67;11.33
72031;PMS5003;49185;42.320;23.198;2023-01-10T15:01:56;26.00;23.25;13.00
72031;PMS5003;49185;42.320;23.198;2023-01-10T15:04:30;21.75;19.25;14.00
72031;PMS5003;49185;42.320;23.198;2023-01-10T15:06:58;18.00;16.25;10.25
72031;PMS5003;49185;42.320;23.198;2023-01-10T15:09:26;19.00;18.00;10.50
72031;PMS5003;49185;42.320;23.198;2023-01-10T15:11:53;27.00;25.50;14.00
72031;PMS5003;49185;42.320;23.198;2023-01-10T15:14:19;26.25;23.00;14.00
72031;PMS5003;49185;42.320;23.198;2023-01-10T15:16:46;29.00;25.00;14.75
72031;PMS5003;49185;42.320;23.198;2023-01-10T15:19:17;31.75;27.50;16.75
72031;PMS5003;49185;42.320;23.198;2023-01-10T15:21:44;45.00;36.25;22.50
72031;PMS5003;49185;42.320;23.198;2023-01-10T15:24:30;46.25;38.25;24.00
72031;PMS5003;49185;42.320;23.198;2023-01-10T15:26:58;46.50;37.00;23.00
72031;PMS5003;49185;42.320;23.198;2023-01-10T15:29:27;34.50;29.00;17.75
72031;PMS5003;49185;42.320;23.198;2023-01-10T15:31:53;19.00;17.50;9.75
72031;PMS5003;49185;42.320;23.198;2023-01-10T15:34:27;11.25;9.50;1.00
72031;PMS5003;49185;42.320;23.198;2023-01-10T15:36:55;5.25;4.50;1.00
72031;PMS5003;49185;42.320;23.198;2023-01-10T15:39:27;0.00;0.00;0.00
72031;PMS5003;49185;42.320;23.198;2023-01-10T15:42:03;1.50;1.50;0.00
72031;PMS5003;49185;42.320;23.198;2023-01-10T15:44:41;0.00;0.00;0.00
72031;PMS5003;49185;42.320;23.198;2023-01-10T15:52:46;0.00;0.00;0.00
72031;PMS5003;49185;42.320;23.198;2023-01-10T15:58:18;0.00;0.00;0.00
72031;PMS5003;49185;42.320;23.198;2023-01-10T16:00:47;0.00;0.00;0.00